sensor_id;sensor_type;location;lat;lon;timestamp;P1;durP1;ratioP1;P2;durP2;ratioP2
16954;SDS011;8594;52.052;8.354;2023-12-20T00:00:37;13.33;;;7.17;;
16954;SDS011;8594;52.052;8.354;2023-12-20T00:03:04;16.53;;;7.33;;
16954;SDS011;8594;52.052;8.354;2023-12-20T00:05:30;26.00;;;7.33;;
16954;SDS011;8594;52.052;8.354;2023-12-20T00:07:58;16.80;;;7.73;;
16954;SDS011;8594;52.052;8.354;2023-12-20T00:10:25;15.90;;;6.90;;
16954;SDS011;8594;52.052;8.354;2023-12-20T00:12:51;15.50;;;5.90;;
16954;SDS011;8594;52.052;8.354;2023-12-20T00:15:19;13.33;;;6.20;;
16954;SDS011;8594;52.052;8.354;2023-12-20T00:17:46;16.47;;;6.73;;
16954;SDS011;8594;52.052;8.354;2023-12-20T00:20:13;15.40;;;6.60;;
16954;SDS011;8594;52.052;8.354;2023-12-20T00:22:40;10.93;;;6.40;;
16954;SDS011;8594;52.052;8.354;2023-12-20T00:25:07;14.30;;;6.73;;
16954;SDS011;8594;52.052;8.354;2023-12-20T00:27:34;12.87;;;6.37;;
16954;SDS011;8594;52.052;8.354;2023-12-20T00:30:01;15.23;;;7.77;;
16954;SDS011;8594;52.052;8.354;2023-12-20T00:32:29;18.10;;;6.97;;
16954;SDS011;8594;52.052;8.354;2023-12-20T00:34:56;15.90;;;6.73;;
16954;SDS011;8594;52.052;8.354;2023-12-20T00:37:23;17.27;;;6.73;;
16954;SDS011;8594;52.052;8.354;2023-12-20T00:39:50;13.83;;;7.00;;
16954;SDS011;8594;52.052;8.354;2023-12-20T00:42:16;13.03;;;6.47;;
16954;SDS011;8594;52.052;8.354;2023-12-20T00:44:43;14.47;;;6.63;;
16954;SDS011;8594;52.052;8.354;2023-12-20T00:47:10;14.97;;;5.97;;
16954;SDS011;8594;52.052;8.354;2023-12-20T00:49:38;14.50;;;6.00;;
16954;SDS011;8594;52.052;8.354;2023-12-20T00:52:05;11.13;;;5.80;;
16954;SDS011;8594;52.052;8.354;2023-12-20T00:54:32;12.23;;;5.87;;
16954;SDS011;8594;52.052;8.354;2023-12-20T00:56:59;14.13;;;5.67;;
16954;SDS011;8594;52.052;8.354;2023-12-20T00:59:25;14.37;;;5.70;;
16954;SDS011;8594;52.052;8.354;2023-12-20T01:01:52;14.70;;;6.63;;
16954;SDS011;8594;52.052;8.354;2023-12-20T01:04:19;16.40;;;6.13;;
16954;SDS011;8594;52.052;8.354;2023-12-20T01:06:47;14.30;;;6.13;;
16954;SDS011;8594;52.052;8.354;2023-12-20T01:09:14;11.40;;;5.00;;
16954;SDS011;8594;52.052;8.354;2023-12-20T01:11:41;16.43;;;5.93;;
16954;SDS011;8594;52.052;8.354;2023-12-20T01:14:07;9.00;;;4.97;;
16954;SDS011;8594;52.052;8.354;2023-12-20T01:16:34;11.23;;;5.40;;
16954;SDS011;8594;52.052;8.354;2023-12-20T01:19:01;10.30;;;5.10;;
16954;SDS011;8594;52.052;8.354;2023-12-20T01:21:27;14.00;;;4.97;;
16954;SDS011;8594;52.052;8.354;2023-12-20T01:23:55;11.33;;;4.83;;
16954;SDS011;8594;52.052;8.354;2023-12-20T01:26:22;11.87;;;4.87;;
16954;SDS011;8594;52.052;8.354;2023-12-20T01:28:49;13.40;;;5.23;;
16954;SDS011;8594;52.052;8.354;2023-12-20T01:31:15;10.83;;;5.17;;
16954;SDS011;8594;52.052;8.354;2023-12-20T01:33:42;12.33;;;4.73;;
16954;SDS011;8594;52.052;8.354;2023-12-20T01:36:09;12.87;;;4.57;;
16954;SDS011;8594;52.052;8.354;2023-12-20T01:38:36;14.73;;;5.00;;
16954;SDS011;8594;52.052;8.354;2023-12-20T01:41:04;11.70;;;4.07;;
16954;SDS011;8594;52.052;8.354;2023-12-20T01:43:31;15.67;;;4.30;;
16954;SDS011;8594;52.052;8.354;2023-12-20T01:45:58;9.43;;;3.80;;
16954;SDS011;8594;52.052;8.354;2023-12-20T01:48:25;11.23;;;4.13;;
16954;SDS011;8594;52.052;8.354;2023-12-20T01:50:54;11.73;;;4.53;;
16954;SDS011;8594;52.052;8.354;2023-12-20T01:53:21;9.50;;;4.20;;
16954;SDS011;8594;52.052;8.354;2023-12-20T01:55:52;13.73;;;4.10;;
16954;SDS011;8594;52.052;8.354;2023-12-20T01:58:23;13.00;;;3.83;;
16954;SDS011;8594;52.052;8.354;2023-12-20T02:00:51;10.00;;;3.80;;
16954;SDS011;8594;52.052;8.354;2023-12-20T02:03:19;11.47;;;3.90;;
16954;SDS011;8594;52.052;8.354;2023-12-20T02:05:47;12.57;;;4.13;;
16954;SDS011;8594;52.052;8.354;2023-12-20T02:08:14;10.10;;;3.40;;
16954;SDS011;8594;52.052;8.354;2023-12-20T02:10:40;11.90;;;3.93;;
16954;SDS011;8594;52.052;8.354;2023-12-20T02:13:08;14.03;;;3.53;;
16954;SDS011;8594;52.052;8.354;2023-12-20T02:15:36;12.40;;;3.50;;
16954;SDS011;8594;52.052;8.354;2023-12-20T02:18:03;14.40;;;3.67;;
16954;SDS011;8594;52.052;8.354;2023-12-20T02:20:30;13.70;;;3.30;;
16954;SDS011;8594;52.052;8.354;2023-12-20T02:22:58;15.60;;;3.43;;
16954;SDS011;8594;52.052;8.354;2023-12-20T02:25:25;5.77;;;3.00;;
16954;SDS011;8594;52.052;8.354;2023-12-20T02:27:52;9.73;;;3.40;;
16954;SDS011;8594;52.052;8.354;2023-12-20T02:30:19;16.10;;;3.50;;
16954;SDS011;8594;52.052;8.354;2023-12-20T02:32:45;13.77;;;3.10;;
16954;SDS011;8594;52.052;8.354;2023-12-20T02:35:13;10.27;;;2.90;;
16954;SDS011;8594;52.052;8.354;2023-12-20T02:37:39;9.53;;;3.27;;
16954;SDS011;8594;52.052;8.354;2023-12-20T02:40:08;11.97;;;3.30;;
16954;SDS011;8594;52.052;8.354;2023-12-20T02:42:35;12.57;;;3.10;;
16954;SDS011;8594;52.052;8.354;2023-12-20T02:45:02;9.13;;;3.10;;
16954;SDS011;8594;52.052;8.354;2023-12-20T02:47:30;16.00;;;3.60;;
16954;SDS011;8594;52.052;8.354;2023-12-20T02:49:56;13.67;;;3.07;;
16954;SDS011;8594;52.052;8.354;2023-12-20T02:52:23;14.30;;;3.10;;
16954;SDS011;8594;52.052;8.354;2023-12-20T02:54:50;23.17;;;3.77;;
16954;SDS011;8594;52.052;8.354;2023-12-20T02:57:18;11.17;;;3.40;;
16954;SDS011;8594;52.052;8.354;2023-12-20T02:59:45;9.93;;;3.57;;
16954;SDS011;8594;52.052;8.354;2023-12-20T03:02:12;10.80;;;3.70;;
16954;SDS011;8594;52.052;8.354;2023-12-20T03:04:38;17.37;;;3.57;;
16954;SDS011;8594;52.052;8.354;2023-12-20T03:07:05;12.20;;;4.00;;
16954;SDS011;8594;52.052;8.354;2023-12-20T03:09:32;12.97;;;4.40;;
16954;SDS011;8594;52.052;8.354;2023-12-20T03:11:58;13.83;;;4.70;;
16954;SDS011;8594;52.052;8.354;2023-12-20T03:14:26;16.57;;;4.00;;
16954;SDS011;8594;52.052;8.354;2023-12-20T03:16:53;16.90;;;4.33;;
16954;SDS011;8594;52.052;8.354;2023-12-20T03:19:20;13.97;;;5.20;;
16954;SDS011;8594;52.052;8.354;2023-12-20T03:21:46;18.60;;;4.53;;
16954;SDS011;8594;52.052;8.354;2023-12-20T03:24:13;14.97;;;4.20;;
16954;SDS011;8594;52.052;8.354;2023-12-20T03:26:40;22.13;;;5.90;;
16954;SDS011;8594;52.052;8.354;2023-12-20T03:29:07;13.83;;;4.40;;
16954;SDS011;8594;52.052;8.354;2023-12-20T03:31:35;12.97;;;5.27;;
16954;SDS011;8594;52.052;8.354;2023-12-20T03:34:01;13.53;;;5.23;;
16954;SDS011;8594;52.052;8.354;2023-12-20T03:36:28;16.53;;;5.17;;
16954;SDS011;8594;52.052;8.354;2023-12-20T03:38:55;12.67;;;5.50;;
16954;SDS011;8594;52.052;8.354;2023-12-20T03:41:21;19.63;;;5.93;;
16954;SDS011;8594;52.052;8.354;2023-12-20T03:43:48;17.47;;;4.93;;
16954;SDS011;8594;52.052;8.354;2023-12-20T03:46:15;14.97;;;5.70;;
16954;SDS011;8594;52.052;8.354;2023-12-20T03:48:43;17.97;;;6.30;;
16954;SDS011;8594;52.052;8.354;2023-12-20T03:51:09;23.93;;;6.00;;
16954;SDS011;8594;52.052;8.354;2023-12-20T03:53:36;20.80;;;6.83;;
16954;SDS011;8594;52.052;8.354;2023-12-20T03:56:04;24.37;;;6.43;;
16954;SDS011;8594;52.052;8.354;2023-12-20T03:58:32;24.10;;;6.37;;
16954;SDS011;8594;52.052;8.354;2023-12-20T04:00:58;15.87;;;6.40;;
16954;SDS011;8594;52.052;8.354;2023-12-20T04:03:25;16.47;;;6.37;;
16954;SDS011;8594;52.052;8.354;2023-12-20T04:05:53;18.13;;;6.70;;
16954;SDS011;8594;52.052;8.354;2023-12-20T04:08:20;17.07;;;5.70;;
16954;SDS011;8594;52.052;8.354;2023-12-20T04:10:47;16.83;;;5.70;;
16954;SDS011;8594;52.052;8.354;2023-12-20T04:13:13;31.83;;;6.57;;
16954;SDS011;8594;52.052;8.354;2023-12-20T04:15:40;22.63;;;6.07;;
16954;SDS011;8594;52.052;8.354;2023-12-20T04:18:07;16.07;;;6.57;;
16954;SDS011;8594;52.052;8.354;2023-12-20T04:20:33;19.23;;;5.60;;
16954;SDS011;8594;52.052;8.354;2023-12-20T04:23:01;21.20;;;6.07;;
16954;SDS011;8594;52.052;8.354;2023-12-20T04:25:28;16.90;;;5.33;;
16954;SDS011;8594;52.052;8.354;2023-12-20T04:27:55;15.80;;;5.50;;
16954;SDS011;8594;52.052;8.354;2023-12-20T04:30:22;19.73;;;5.20;;
16954;SDS011;8594;52.052;8.354;2023-12-20T04:32:49;22.53;;;5.40;;
16954;SDS011;8594;52.052;8.354;2023-12-20T04:35:15;12.43;;;4.97;;
16954;SDS011;8594;52.052;8.354;2023-12-20T04:37:41;27.17;;;5.80;;
16954;SDS011;8594;52.052;8.354;2023-12-20T04:40:09;20.90;;;5.37;;
16954;SDS011;8594;52.052;8.354;2023-12-20T04:42:36;18.67;;;4.63;;
16954;SDS011;8594;52.052;8.354;2023-12-20T04:45:03;15.20;;;4.97;;
16954;SDS011;8594;52.052;8.354;2023-12-20T04:47:31;24.10;;;5.90;;
16954;SDS011;8594;52.052;8.354;2023-12-20T04:49:57;16.70;;;5.03;;
16954;SDS011;8594;52.052;8.354;2023-12-20T04:52:25;18.53;;;4.67;;
16954;SDS011;8594;52.052;8.354;2023-12-20T04:54:51;19.87;;;5.47;;
16954;SDS011;8594;52.052;8.354;2023-12-20T04:57:19;29.20;;;6.57;;
16954;SDS011;8594;52.052;8.354;2023-12-20T04:59:47;20.60;;;5.50;;
16954;SDS011;8594;52.052;8.354;2023-12-20T05:02:13;30.60;;;6.03;;
16954;SDS011;8594;52.052;8.354;2023-12-20T05:04:40;22.03;;;4.90;;
16954;SDS011;8594;52.052;8.354;2023-12-20T05:07:07;18.07;;;5.50;;
16954;SDS011;8594;52.052;8.354;2023-12-20T05:09:34;29.07;;;5.40;;
16954;SDS011;8594;52.052;8.354;2023-12-20T05:12:00;17.30;;;5.13;;
16954;SDS011;8594;52.052;8.354;2023-12-20T05:14:28;18.13;;;4.97;;
16954;SDS011;8594;52.052;8.354;2023-12-20T05:16:55;22.10;;;5.17;;
16954;SDS011;8594;52.052;8.354;2023-12-20T05:19:22;21.83;;;6.13;;
16954;SDS011;8594;52.052;8.354;2023-12-20T05:21:49;27.17;;;5.57;;
16954;SDS011;8594;52.052;8.354;2023-12-20T05:24:16;23.27;;;5.53;;
16954;SDS011;8594;52.052;8.354;2023-12-20T05:26:42;15.53;;;6.03;;
16954;SDS011;8594;52.052;8.354;2023-12-20T05:29:09;20.70;;;5.53;;
16954;SDS011;8594;52.052;8.354;2023-12-20T05:31:37;18.60;;;5.90;;
16954;SDS011;8594;52.052;8.354;2023-12-20T05:34:04;17.43;;;5.53;;
16954;SDS011;8594;52.052;8.354;2023-12-20T05:36:31;22.60;;;5.90;;
16954;SDS011;8594;52.052;8.354;2023-12-20T05:38:57;24.13;;;6.10;;
16954;SDS011;8594;52.052;8.354;2023-12-20T05:41:24;26.23;;;6.93;;
16954;SDS011;8594;52.052;8.354;2023-12-20T05:43:51;33.20;;;6.13;;
16954;SDS011;8594;52.052;8.354;2023-12-20T05:46:17;23.40;;;5.57;;
16954;SDS011;8594;52.052;8.354;2023-12-20T05:48:45;16.33;;;5.03;;
16954;SDS011;8594;52.052;8.354;2023-12-20T05:51:12;20.97;;;7.43;;
16954;SDS011;8594;52.052;8.354;2023-12-20T05:53:39;25.60;;;6.40;;
16954;SDS011;8594;52.052;8.354;2023-12-20T05:56:06;20.83;;;6.20;;
16954;SDS011;8594;52.052;8.354;2023-12-20T05:58:32;22.80;;;6.20;;
16954;SDS011;8594;52.052;8.354;2023-12-20T06:00:59;26.20;;;6.50;;
16954;SDS011;8594;52.052;8.354;2023-12-20T06:03:26;17.97;;;5.77;;
16954;SDS011;8594;52.052;8.354;2023-12-20T06:05:54;31.43;;;6.60;;
16954;SDS011;8594;52.052;8.354;2023-12-20T06:08:21;22.00;;;6.70;;
16954;SDS011;8594;52.052;8.354;2023-12-20T06:10:48;21.43;;;6.60;;
16954;SDS011;8594;52.052;8.354;2023-12-20T06:13:15;26.80;;;5.93;;
16954;SDS011;8594;52.052;8.354;2023-12-20T06:15:41;26.67;;;6.17;;
16954;SDS011;8594;52.052;8.354;2023-12-20T06:18:08;17.63;;;5.90;;
16954;SDS011;8594;52.052;8.354;2023-12-20T06:20:35;24.93;;;6.00;;
16954;SDS011;8594;52.052;8.354;2023-12-20T06:23:03;23.67;;;5.97;;
16954;SDS011;8594;52.052;8.354;2023-12-20T06:25:30;19.43;;;6.30;;
16954;SDS011;8594;52.052;8.354;2023-12-20T06:27:57;23.90;;;6.17;;
16954;SDS011;8594;52.052;8.354;2023-12-20T06:30:23;27.17;;;6.63;;
16954;SDS011;8594;52.052;8.354;2023-12-20T06:32:52;17.77;;;6.03;;
16954;SDS011;8594;52.052;8.354;2023-12-20T06:35:19;22.03;;;5.83;;
16954;SDS011;8594;52.052;8.354;2023-12-20T06:37:46;25.10;;;5.97;;
16954;SDS011;8594;52.052;8.354;2023-12-20T06:40:14;23.27;;;6.00;;
16954;SDS011;8594;52.052;8.354;2023-12-20T06:42:42;26.80;;;6.20;;
16954;SDS011;8594;52.052;8.354;2023-12-20T06:45:10;16.93;;;5.80;;
16954;SDS011;8594;52.052;8.354;2023-12-20T06:47:37;26.50;;;6.40;;
16954;SDS011;8594;52.052;8.354;2023-12-20T06:50:04;23.80;;;6.10;;
16954;SDS011;8594;52.052;8.354;2023-12-20T06:52:33;25.20;;;6.73;;
16954;SDS011;8594;52.052;8.354;2023-12-20T06:55:00;20.80;;;5.90;;
16954;SDS011;8594;52.052;8.354;2023-12-20T06:57:28;24.87;;;6.50;;
16954;SDS011;8594;52.052;8.354;2023-12-20T06:59:55;25.17;;;6.07;;
16954;SDS011;8594;52.052;8.354;2023-12-20T07:02:22;15.63;;;5.83;;
16954;SDS011;8594;52.052;8.354;2023-12-20T07:04:49;25.33;;;6.03;;
16954;SDS011;8594;52.052;8.354;2023-12-20T07:07:16;25.77;;;6.03;;
16954;SDS011;8594;52.052;8.354;2023-12-20T07:09:42;25.97;;;6.43;;
16954;SDS011;8594;52.052;8.354;2023-12-20T07:12:09;24.13;;;5.77;;
16954;SDS011;8594;52.052;8.354;2023-12-20T07:14:37;24.50;;;5.70;;
16954;SDS011;8594;52.052;8.354;2023-12-20T07:17:04;17.93;;;4.73;;
16954;SDS011;8594;52.052;8.354;2023-12-20T07:19:32;15.70;;;5.77;;
16954;SDS011;8594;52.052;8.354;2023-12-20T07:21:59;15.43;;;5.30;;
16954;SDS011;8594;52.052;8.354;2023-12-20T07:24:26;37.77;;;7.43;;
16954;SDS011;8594;52.052;8.354;2023-12-20T07:26:52;14.40;;;5.70;;
16954;SDS011;8594;52.052;8.354;2023-12-20T07:29:19;20.00;;;5.93;;
16954;SDS011;8594;52.052;8.354;2023-12-20T07:31:47;27.03;;;6.17;;
16954;SDS011;8594;52.052;8.354;2023-12-20T07:34:14;30.97;;;6.13;;
16954;SDS011;8594;52.052;8.354;2023-12-20T07:36:41;25.43;;;6.50;;
16954;SDS011;8594;52.052;8.354;2023-12-20T07:39:07;21.07;;;6.00;;
16954;SDS011;8594;52.052;8.354;2023-12-20T07:41:35;17.77;;;5.10;;
16954;SDS011;8594;52.052;8.354;2023-12-20T07:44:01;20.27;;;4.80;;
16954;SDS011;8594;52.052;8.354;2023-12-20T07:46:29;23.70;;;5.20;;
16954;SDS011;8594;52.052;8.354;2023-12-20T07:48:57;27.30;;;6.60;;
16954;SDS011;8594;52.052;8.354;2023-12-20T07:51:24;24.67;;;5.93;;
16954;SDS011;8594;52.052;8.354;2023-12-20T07:53:51;19.03;;;5.00;;
16954;SDS011;8594;52.052;8.354;2023-12-20T07:56:18;22.80;;;5.00;;
16954;SDS011;8594;52.052;8.354;2023-12-20T07:58:46;16.20;;;4.70;;
16954;SDS011;8594;52.052;8.354;2023-12-20T08:01:15;21.10;;;5.63;;
16954;SDS011;8594;52.052;8.354;2023-12-20T08:03:43;32.90;;;5.53;;
16954;SDS011;8594;52.052;8.354;2023-12-20T08:06:11;22.90;;;5.60;;
16954;SDS011;8594;52.052;8.354;2023-12-20T08:08:38;26.90;;;5.37;;
16954;SDS011;8594;52.052;8.354;2023-12-20T08:11:04;33.63;;;6.70;;
16954;SDS011;8594;52.052;8.354;2023-12-20T08:13:31;21.17;;;5.03;;
16954;SDS011;8594;52.052;8.354;2023-12-20T08:15:58;18.00;;;4.97;;
16954;SDS011;8594;52.052;8.354;2023-12-20T08:18:25;22.20;;;4.80;;
16954;SDS011;8594;52.052;8.354;2023-12-20T08:20:51;25.30;;;5.17;;
16954;SDS011;8594;52.052;8.354;2023-12-20T08:23:20;16.13;;;5.03;;
16954;SDS011;8594;52.052;8.354;2023-12-20T08:25:47;16.70;;;5.60;;
16954;SDS011;8594;52.052;8.354;2023-12-20T08:28:14;17.43;;;5.33;;
16954;SDS011;8594;52.052;8.354;2023-12-20T08:30:40;23.47;;;5.23;;
16954;SDS011;8594;52.052;8.354;2023-12-20T08:33:07;23.13;;;5.40;;
16954;SDS011;8594;52.052;8.354;2023-12-20T08:35:37;18.27;;;4.90;;
16954;SDS011;8594;52.052;8.354;2023-12-20T08:38:04;20.47;;;5.00;;
16954;SDS011;8594;52.052;8.354;2023-12-20T08:40:32;21.30;;;4.80;;
16954;SDS011;8594;52.052;8.354;2023-12-20T08:43:00;17.07;;;5.13;;
16954;SDS011;8594;52.052;8.354;2023-12-20T08:45:27;26.43;;;6.23;;
16954;SDS011;8594;52.052;8.354;2023-12-20T08:47:54;26.37;;;5.17;;
16954;SDS011;8594;52.052;8.354;2023-12-20T08:50:20;17.10;;;5.00;;
16954;SDS011;8594;52.052;8.354;2023-12-20T08:52:47;24.37;;;5.47;;
16954;SDS011;8594;52.052;8.354;2023-12-20T08:55:14;27.33;;;5.87;;
16954;SDS011;8594;52.052;8.354;2023-12-20T08:57:44;19.80;;;5.93;;
16954;SDS011;8594;52.052;8.354;2023-12-20T09:00:11;21.33;;;5.47;;
16954;SDS011;8594;52.052;8.354;2023-12-20T09:02:39;24.57;;;6.13;;
16954;SDS011;8594;52.052;8.354;2023-12-20T09:05:06;24.07;;;5.87;;
16954;SDS011;8594;52.052;8.354;2023-12-20T09:07:33;27.60;;;6.70;;
16954;SDS011;8594;52.052;8.354;2023-12-20T09:10:00;21.77;;;7.13;;
16954;SDS011;8594;52.052;8.354;2023-12-20T09:12:27;23.23;;;6.03;;
16954;SDS011;8594;52.052;8.354;2023-12-20T09:14:55;25.00;;;7.00;;
16954;SDS011;8594;52.052;8.354;2023-12-20T09:17:22;19.60;;;6.00;;
16954;SDS011;8594;52.052;8.354;2023-12-20T09:19:49;34.40;;;6.03;;
16954;SDS011;8594;52.052;8.354;2023-12-20T09:22:17;17.30;;;6.00;;
16954;SDS011;8594;52.052;8.354;2023-12-20T09:24:44;24.00;;;6.67;;
16954;SDS011;8594;52.052;8.354;2023-12-20T09:27:11;24.63;;;6.10;;
16954;SDS011;8594;52.052;8.354;2023-12-20T09:29:37;36.70;;;6.73;;
16954;SDS011;8594;52.052;8.354;2023-12-20T09:32:05;23.67;;;6.17;;
16954;SDS011;8594;52.052;8.354;2023-12-20T09:34:33;26.83;;;6.20;;
16954;SDS011;8594;52.052;8.354;2023-12-20T09:36:59;28.77;;;7.00;;
16954;SDS011;8594;52.052;8.354;2023-12-20T09:39:27;28.17;;;6.87;;
16954;SDS011;8594;52.052;8.354;2023-12-20T09:41:58;24.60;;;6.40;;
16954;SDS011;8594;52.052;8.354;2023-12-20T09:44:28;27.07;;;6.83;;
16954;SDS011;8594;52.052;8.354;2023-12-20T09:46:57;24.07;;;6.33;;
16954;SDS011;8594;52.052;8.354;2023-12-20T09:49:25;24.20;;;6.53;;
16954;SDS011;8594;52.052;8.354;2023-12-20T09:51:54;17.80;;;6.60;;
16954;SDS011;8594;52.052;8.354;2023-12-20T09:54:22;24.10;;;6.03;;
16954;SDS011;8594;52.052;8.354;2023-12-20T09:56:49;27.37;;;7.00;;
16954;SDS011;8594;52.052;8.354;2023-12-20T09:59:16;22.10;;;6.63;;
16954;SDS011;8594;52.052;8.354;2023-12-20T10:01:43;26.90;;;7.07;;
16954;SDS011;8594;52.052;8.354;2023-12-20T10:04:11;22.23;;;6.90;;
16954;SDS011;8594;52.052;8.354;2023-12-20T10:06:40;24.73;;;6.07;;
16954;SDS011;8594;52.052;8.354;2023-12-20T10:09:09;18.30;;;6.20;;
16954;SDS011;8594;52.052;8.354;2023-12-20T10:11:37;16.70;;;5.77;;
16954;SDS011;8594;52.052;8.354;2023-12-20T10:14:04;29.67;;;6.63;;
16954;SDS011;8594;52.052;8.354;2023-12-20T10:16:33;25.23;;;6.30;;
16954;SDS011;8594;52.052;8.354;2023-12-20T10:19:00;20.07;;;6.13;;
16954;SDS011;8594;52.052;8.354;2023-12-20T10:21:27;26.17;;;5.47;;
16954;SDS011;8594;52.052;8.354;2023-12-20T10:23:55;29.63;;;6.37;;
16954;SDS011;8594;52.052;8.354;2023-12-20T10:26:24;28.47;;;6.37;;
16954;SDS011;8594;52.052;8.354;2023-12-20T10:28:53;24.53;;;6.07;;
16954;SDS011;8594;52.052;8.354;2023-12-20T10:31:27;21.80;;;6.23;;
16954;SDS011;8594;52.052;8.354;2023-12-20T10:33:56;21.57;;;6.23;;
16954;SDS011;8594;52.052;8.354;2023-12-20T10:36:24;21.97;;;5.63;;
16954;SDS011;8594;52.052;8.354;2023-12-20T10:38:53;35.17;;;6.50;;
16954;SDS011;8594;52.052;8.354;2023-12-20T10:41:24;12.93;;;5.30;;
16954;SDS011;8594;52.052;8.354;2023-12-20T10:43:54;28.10;;;5.83;;
16954;SDS011;8594;52.052;8.354;2023-12-20T10:46:24;23.47;;;5.80;;
16954;SDS011;8594;52.052;8.354;2023-12-20T10:48:53;26.27;;;5.17;;
16954;SDS011;8594;52.052;8.354;2023-12-20T10:51:20;22.33;;;5.70;;
16954;SDS011;8594;52.052;8.354;2023-12-20T10:53:49;23.90;;;6.33;;
16954;SDS011;8594;52.052;8.354;2023-12-20T10:56:19;24.80;;;6.30;;
16954;SDS011;8594;52.052;8.354;2023-12-20T10:58:48;18.37;;;5.30;;
16954;SDS011;8594;52.052;8.354;2023-12-20T11:01:16;22.90;;;5.93;;
16954;SDS011;8594;52.052;8.354;2023-12-20T11:03:47;20.10;;;5.70;;
16954;SDS011;8594;52.052;8.354;2023-12-20T11:06:19;31.27;;;6.43;;
16954;SDS011;8594;52.052;8.354;2023-12-20T11:09:01;24.97;;;6.73;;
16954;SDS011;8594;52.052;8.354;2023-12-20T11:11:44;22.00;;;6.37;;
16954;SDS011;8594;52.052;8.354;2023-12-20T11:14:29;21.70;;;6.57;;
16954;SDS011;8594;52.052;8.354;2023-12-20T11:17:07;24.70;;;5.33;;
16954;SDS011;8594;52.052;8.354;2023-12-20T11:19:35;29.90;;;6.63;;
16954;SDS011;8594;52.052;8.354;2023-12-20T11:22:04;16.47;;;5.40;;
16954;SDS011;8594;52.052;8.354;2023-12-20T11:24:32;21.17;;;5.90;;
16954;SDS011;8594;52.052;8.354;2023-12-20T11:27:04;24.60;;;4.67;;
16954;SDS011;8594;52.052;8.354;2023-12-20T11:29:31;14.93;;;5.30;;
16954;SDS011;8594;52.052;8.354;2023-12-20T11:32:00;19.10;;;4.90;;
16954;SDS011;8594;52.052;8.354;2023-12-20T11:34:29;15.27;;;4.10;;
16954;SDS011;8594;52.052;8.354;2023-12-20T11:36:59;16.33;;;4.50;;
16954;SDS011;8594;52.052;8.354;2023-12-20T11:39:28;19.07;;;4.97;;
16954;SDS011;8594;52.052;8.354;2023-12-20T11:41:56;17.67;;;4.10;;
16954;SDS011;8594;52.052;8.354;2023-12-20T11:44:26;19.90;;;4.53;;
16954;SDS011;8594;52.052;8.354;2023-12-20T11:46:57;16.10;;;4.90;;
16954;SDS011;8594;52.052;8.354;2023-12-20T11:49:24;19.40;;;4.17;;
16954;SDS011;8594;52.052;8.354;2023-12-20T11:51:51;13.80;;;4.57;;
16954;SDS011;8594;52.052;8.354;2023-12-20T11:54:18;12.53;;;3.80;;
16954;SDS011;8594;52.052;8.354;2023-12-20T11:56:45;13.83;;;3.73;;
16954;SDS011;8594;52.052;8.354;2023-12-20T11:59:13;11.63;;;3.80;;
16954;SDS011;8594;52.052;8.354;2023-12-20T12:01:48;14.63;;;4.27;;
16954;SDS011;8594;52.052;8.354;2023-12-20T12:04:15;11.53;;;3.60;;
16954;SDS011;8594;52.052;8.354;2023-12-20T12:06:43;13.97;;;3.80;;
16954;SDS011;8594;52.052;8.354;2023-12-20T12:09:09;14.50;;;3.77;;
16954;SDS011;8594;52.052;8.354;2023-12-20T12:11:36;15.60;;;3.07;;
16954;SDS011;8594;52.052;8.354;2023-12-20T12:14:04;11.33;;;3.30;;
16954;SDS011;8594;52.052;8.354;2023-12-20T12:16:30;11.67;;;3.10;;
16954;SDS011;8594;52.052;8.354;2023-12-20T12:18:59;15.60;;;3.97;;
16954;SDS011;8594;52.052;8.354;2023-12-20T12:21:25;13.53;;;3.60;;
16954;SDS011;8594;52.052;8.354;2023-12-20T12:23:52;17.57;;;3.47;;
16954;SDS011;8594;52.052;8.354;2023-12-20T12:26:19;15.23;;;4.00;;
16954;SDS011;8594;52.052;8.354;2023-12-20T12:28:46;18.63;;;3.30;;
16954;SDS011;8594;52.052;8.354;2023-12-20T12:31:13;19.30;;;4.00;;
16954;SDS011;8594;52.052;8.354;2023-12-20T12:33:41;21.80;;;4.33;;
16954;SDS011;8594;52.052;8.354;2023-12-20T12:36:10;18.17;;;4.10;;
16954;SDS011;8594;52.052;8.354;2023-12-20T12:38:41;18.50;;;4.17;;
16954;SDS011;8594;52.052;8.354;2023-12-20T12:41:07;19.43;;;3.90;;
16954;SDS011;8594;52.052;8.354;2023-12-20T12:43:35;14.30;;;4.30;;
16954;SDS011;8594;52.052;8.354;2023-12-20T12:46:02;17.67;;;3.70;;
16954;SDS011;8594;52.052;8.354;2023-12-20T12:48:30;23.57;;;4.93;;
16954;SDS011;8594;52.052;8.354;2023-12-20T12:50:57;18.30;;;3.97;;
16954;SDS011;8594;52.052;8.354;2023-12-20T12:53:25;20.63;;;4.10;;
16954;SDS011;8594;52.052;8.354;2023-12-20T12:55:52;18.20;;;3.60;;
16954;SDS011;8594;52.052;8.354;2023-12-20T12:58:20;18.13;;;3.97;;
16954;SDS011;8594;52.052;8.354;2023-12-20T13:00:47;22.50;;;4.23;;
16954;SDS011;8594;52.052;8.354;2023-12-20T13:03:13;20.43;;;4.57;;
16954;SDS011;8594;52.052;8.354;2023-12-20T13:05:40;16.57;;;4.67;;
16954;SDS011;8594;52.052;8.354;2023-12-20T13:08:08;15.20;;;4.57;;
16954;SDS011;8594;52.052;8.354;2023-12-20T13:10:38;13.40;;;3.33;;
16954;SDS011;8594;52.052;8.354;2023-12-20T13:13:05;14.67;;;3.70;;
16954;SDS011;8594;52.052;8.354;2023-12-20T13:15:31;15.47;;;3.07;;
16954;SDS011;8594;52.052;8.354;2023-12-20T13:17:58;7.77;;;3.00;;
16954;SDS011;8594;52.052;8.354;2023-12-20T13:20:25;12.93;;;3.20;;
16954;SDS011;8594;52.052;8.354;2023-12-20T13:22:52;8.80;;;2.83;;
16954;SDS011;8594;52.052;8.354;2023-12-20T13:25:19;13.47;;;3.77;;
16954;SDS011;8594;52.052;8.354;2023-12-20T13:27:47;10.80;;;2.67;;
16954;SDS011;8594;52.052;8.354;2023-12-20T13:30:15;10.53;;;3.50;;
16954;SDS011;8594;52.052;8.354;2023-12-20T13:32:43;9.37;;;3.37;;
16954;SDS011;8594;52.052;8.354;2023-12-20T13:35:10;10.60;;;3.10;;
16954;SDS011;8594;52.052;8.354;2023-12-20T13:37:37;5.30;;;2.03;;
16954;SDS011;8594;52.052;8.354;2023-12-20T13:40:05;11.23;;;3.03;;
16954;SDS011;8594;52.052;8.354;2023-12-20T13:42:33;11.33;;;1.80;;
16954;SDS011;8594;52.052;8.354;2023-12-20T13:45:02;7.27;;;2.00;;
16954;SDS011;8594;52.052;8.354;2023-12-20T13:47:30;9.17;;;1.73;;
16954;SDS011;8594;52.052;8.354;2023-12-20T13:49:56;7.20;;;1.80;;
16954;SDS011;8594;52.052;8.354;2023-12-20T13:52:23;7.00;;;1.87;;
16954;SDS011;8594;52.052;8.354;2023-12-20T13:54:50;5.70;;;2.03;;
16954;SDS011;8594;52.052;8.354;2023-12-20T13:57:17;9.17;;;2.30;;
16954;SDS011;8594;52.052;8.354;2023-12-20T13:59:43;14.53;;;2.03;;
16954;SDS011;8594;52.052;8.354;2023-12-20T14:02:12;7.93;;;1.97;;
16954;SDS011;8594;52.052;8.354;2023-12-20T14:04:39;10.43;;;2.00;;
16954;SDS011;8594;52.052;8.354;2023-12-20T14:07:05;9.70;;;2.17;;
16954;SDS011;8594;52.052;8.354;2023-12-20T14:09:32;14.43;;;2.70;;
16954;SDS011;8594;52.052;8.354;2023-12-20T14:11:59;8.80;;;2.07;;
16954;SDS011;8594;52.052;8.354;2023-12-20T14:14:26;5.20;;;2.70;;
16954;SDS011;8594;52.052;8.354;2023-12-20T14:16:53;12.50;;;3.30;;
16954;SDS011;8594;52.052;8.354;2023-12-20T14:19:21;18.53;;;4.50;;
16954;SDS011;8594;52.052;8.354;2023-12-20T14:21:48;11.13;;;2.17;;
16954;SDS011;8594;52.052;8.354;2023-12-20T14:24:14;6.97;;;2.00;;
16954;SDS011;8594;52.052;8.354;2023-12-20T14:26:41;6.97;;;1.90;;
16954;SDS011;8594;52.052;8.354;2023-12-20T14:29:08;7.03;;;1.93;;
16954;SDS011;8594;52.052;8.354;2023-12-20T14:31:35;4.57;;;2.00;;
16954;SDS011;8594;52.052;8.354;2023-12-20T14:34:03;11.07;;;2.33;;
16954;SDS011;8594;52.052;8.354;2023-12-20T14:36:31;6.60;;;1.90;;
16954;SDS011;8594;52.052;8.354;2023-12-20T14:38:58;10.77;;;1.87;;
16954;SDS011;8594;52.052;8.354;2023-12-20T14:41:26;8.57;;;2.17;;
16954;SDS011;8594;52.052;8.354;2023-12-20T14:43:53;7.63;;;2.40;;
16954;SDS011;8594;52.052;8.354;2023-12-20T14:46:19;6.70;;;1.90;;
16954;SDS011;8594;52.052;8.354;2023-12-20T14:48:46;14.03;;;2.40;;